createdAt,value
2022-09-26T07:18:02.187Z,17.90
2022-09-26T07:20:52.144Z,18.10
2022-09-26T07:23:58.285Z,19.30
2022-09-26T07:26:26.414Z,20.50
2022-09-26T07:28:54.969Z,19.90
2022-09-26T07:31:24.337Z,20.00
2022-09-26T07:34:10.214Z,20.40
2022-09-26T07:36:40.753Z,20.20
2022-09-26T07:39:09.050Z,19.90
2022-09-26T07:41:36.205Z,20.00
2022-09-26T07:47:09.209Z,19.90
2022-09-26T07:49:55.006Z,20.50
2022-09-26T07:52:42.261Z,21.00
2022-09-26T07:58:07.202Z,20.80
2022-09-26T08:00:56.911Z,20.90
2022-09-26T08:03:46.200Z,19.80
2022-09-26T08:06:26.249Z,18.90
2022-09-26T08:08:54.365Z,18.00
2022-09-26T08:11:40.418Z,17.60
2022-09-26T08:14:14.378Z,17.40
2022-09-26T08:16:57.141Z,17.60
2022-09-26T08:19:24.603Z,17.50
2022-09-26T08:21:51.955Z,17.40
2022-09-26T08:24:20.142Z,17.20
2022-09-26T08:27:06.484Z,16.90
2022-09-26T08:29:37.065Z,17.00
2022-09-26T08:32:04.296Z,17.00
2022-09-26T08:34:35.485Z,16.70
2022-09-26T08:48:52.186Z,18.10
2022-09-26T08:51:31.783Z,18.90
2022-09-26T08:54:05.222Z,19.40
2022-09-26T08:56:35.576Z,19.60
2022-09-26T08:59:05.058Z,19.80
2022-09-26T09:01:39.561Z,19.80
2022-09-26T09:04:40.664Z,19.70
2022-09-26T09:07:15.244Z,19.40
2022-09-26T09:09:42.347Z,19.40
2022-09-26T09:12:32.411Z,19.80
2022-09-26T09:15:38.908Z,19.90
2022-09-26T09:18:29.405Z,20.50
2022-09-26T09:21:44.225Z,20.30
2022-09-26T09:24:30.324Z,20.50
2022-09-26T09:29:58.696Z,21.90
2022-09-26T09:32:50.767Z,22.20
2022-09-26T09:35:35.413Z,22.10
2022-09-26T09:38:22.932Z,22.00
2022-09-26T09:41:45.617Z,21.80
2022-09-26T09:44:15.865Z,21.60
2022-09-26T09:46:43.208Z,21.60
2022-09-26T09:49:10.227Z,22.10
2022-09-26T09:51:39.446Z,21.80
2022-09-26T09:54:22.261Z,21.60
2022-09-26T09:56:52.778Z,21.70
2022-09-26T09:59:39.336Z,21.90
2022-09-26T10:02:30.011Z,22.00
2022-09-26T10:05:16.495Z,22.10
2022-09-26T10:07:48.571Z,22.20
2022-09-26T10:11:02.918Z,22.50
2022-09-26T10:14:02.088Z,22.00
2022-09-26T10:17:10.385Z,21.70
2022-09-26T10:19:45.676Z,21.90
2022-09-26T10:22:37.447Z,21.70
2022-09-26T10:25:08.724Z,21.80
2022-09-26T10:27:40.250Z,22.60
2022-09-26T10:30:21.601Z,22.70
2022-09-26T10:32:56.264Z,22.10
2022-09-26T10:35:46.357Z,22.20
2022-09-26T10:38:23.741Z,22.60
2022-09-26T10:40:59.490Z,22.60
2022-09-26T10:43:32.871Z,23.20
2022-09-26T10:46:16.393Z,23.90
2022-09-26T10:49:03.347Z,23.10
2022-09-26T10:51:54.630Z,22.30
2022-09-26T10:54:23.672Z,22.10
2022-09-26T10:56:54.369Z,22.50
2022-09-26T10:59:25.427Z,22.40
2022-09-26T11:01:56.097Z,22.60
2022-09-26T11:04:44.394Z,22.80
2022-09-26T11:07:44.975Z,22.50
2022-09-26T11:10:32.717Z,22.60
2022-09-26T11:13:32.323Z,22.90
2022-09-26T11:18:37.270Z,23.40
2022-09-26T11:21:28.408Z,23.30
2022-09-26T11:24:03.851Z,23.80
2022-09-26T11:26:34.278Z,23.60
2022-09-26T11:29:14.353Z,23.20
2022-09-26T11:31:55.124Z,23.20
2022-09-26T11:34:44.369Z,23.50
2022-09-26T11:37:31.119Z,23.10
2022-09-26T11:40:15.047Z,22.90
2022-09-26T11:43:01.235Z,23.20
2022-09-26T11:45:38.747Z,23.30
2022-09-26T11:49:02.775Z,23.00
2022-09-26T11:52:02.304Z,23.10
2022-09-26T11:54:33.738Z,23.10
2022-09-26T11:57:08.713Z,22.50
2022-09-26T11:59:46.943Z,21.70
2022-09-26T12:02:43.356Z,21.70
2022-09-26T12:05:14.154Z,21.70
2022-09-26T12:07:52.558Z,21.90
2022-09-26T12:10:42.855Z,21.10
2022-09-26T12:13:13.905Z,20.90
2022-09-26T12:15:44.076Z,21.00
2022-09-26T12:18:28.625Z,20.90
2022-09-26T12:21:08.368Z,20.40
2022-09-26T12:23:45.017Z,19.70
2022-09-26T12:26:27.418Z,19.60
2022-09-26T12:29:09.342Z,19.20
2022-09-26T12:31:36.325Z,18.80
2022-09-26T12:34:10.098Z,18.50
2022-09-26T12:36:40.631Z,18.40
2022-09-26T12:39:14.683Z,18.30
2022-09-26T12:42:01.941Z,18.20
2022-09-26T12:44:31.372Z,18.00
2022-09-26T12:47:07.463Z,17.90
2022-09-26T12:49:45.282Z,17.80
2022-09-26T12:52:12.208Z,17.60
2022-09-26T12:54:40.448Z,17.60
2022-09-26T12:57:26.118Z,17.70
2022-09-26T12:59:56.168Z,17.70
2022-09-26T13:02:28.792Z,17.60
2022-09-26T13:05:02.461Z,17.60
2022-09-26T13:07:53.561Z,17.60
2022-09-26T13:10:23.389Z,17.60
2022-09-26T13:13:02.703Z,17.60
2022-09-26T13:15:50.685Z,17.50
2022-09-26T13:18:24.376Z,17.40
2022-09-26T14:45:16.797Z,16.70
2022-09-26T14:47:45.502Z,16.60
2022-09-26T14:50:18.138Z,16.50
2022-09-26T14:52:57.554Z,16.50
2022-09-26T14:55:25.483Z,16.40
2022-09-26T14:57:52.800Z,16.40
2022-09-26T15:00:35.146Z,16.30
2022-09-26T15:03:04.236Z,16.30
2022-09-26T15:05:31.927Z,16.30
2022-09-26T15:08:01.046Z,16.20
2022-09-26T15:10:37.178Z,16.20
2022-09-26T15:13:07.177Z,16.20
2022-09-26T15:15:52.991Z,16.10
2022-09-26T15:18:38.145Z,16.10
2022-09-26T15:21:19.259Z,16.10
2022-09-26T15:23:48.376Z,16.00
2022-09-26T15:26:16.974Z,16.00
2022-09-26T15:28:46.963Z,15.90
2022-09-26T15:31:26.393Z,15.90
2022-09-26T15:34:04.420Z,15.90
2022-09-26T15:36:35.049Z,15.90
2022-09-26T15:39:07.495Z,15.90
2022-09-26T15:41:53.134Z,15.90
2022-09-26T15:44:22.764Z,15.90
2022-09-26T15:46:50.088Z,15.90
2022-09-26T15:49:21.513Z,15.80
2022-09-26T15:51:55.820Z,15.80
2022-09-26T15:54:30.280Z,15.80
2022-09-26T15:56:59.649Z,15.80
2022-09-26T15:59:29.740Z,15.80
2022-09-26T16:01:57.007Z,15.70
2022-09-26T16:04:27.222Z,15.70
2022-09-26T16:07:04.992Z,15.70
2022-09-26T16:09:40.498Z,15.60
2022-09-26T16:12:12.944Z,15.60
2022-09-26T16:14:46.927Z,15.50
2022-09-26T16:17:20.359Z,15.50
2022-09-26T16:19:48.946Z,15.40
2022-09-26T16:22:40.101Z,15.40
2022-09-26T16:25:19.316Z,15.30
2022-09-26T16:27:47.688Z,15.30
2022-09-26T16:30:27.621Z,15.20
2022-09-26T16:32:55.624Z,15.20
2022-09-26T16:35:29.846Z,15.10
2022-09-26T16:38:01.704Z,15.10
2022-09-26T16:40:33.561Z,15.10
2022-09-26T16:43:04.415Z,15.00
2022-09-26T16:45:31.423Z,15.00
2022-09-26T16:47:58.478Z,15.00
2022-09-26T16:50:28.932Z,14.90
2022-09-26T16:52:56.092Z,14.80
2022-09-26T16:55:24.722Z,14.80
2022-09-26T16:57:57.105Z,14.80
2022-09-26T17:00:51.470Z,14.80
2022-09-26T17:03:24.547Z,14.70
2022-09-26T17:05:52.500Z,14.70
2022-09-26T17:08:20.172Z,14.70
2022-09-26T17:10:47.439Z,14.60
2022-09-26T17:13:17.116Z,14.60
2022-09-26T17:15:48.625Z,14.60
2022-09-26T17:18:19.496Z,14.60
2022-09-26T17:20:47.200Z,14.50
2022-09-26T17:23:38.044Z,14.50
2022-09-26T17:26:01.622Z,14.50
2022-09-26T17:28:36.332Z,14.50
2022-09-26T17:31:07.441Z,14.40
2022-09-26T17:33:40.796Z,14.40
2022-09-26T17:36:11.113Z,14.40
2022-09-26T17:38:40.691Z,14.40
2022-09-26T17:41:09.433Z,14.30
2022-09-26T17:43:36.468Z,14.30
2022-09-26T17:46:03.732Z,14.20
2022-09-26T17:48:34.173Z,14.20
2022-09-26T17:51:02.248Z,14.20
2022-09-26T17:53:39.751Z,14.20
2022-09-26T17:56:07.740Z,14.10
2022-09-26T17:58:35.206Z,14.10
2022-09-26T18:01:03.840Z,14.10
2022-09-26T18:03:32.874Z,14.00
2022-09-26T18:06:01.378Z,14.00
2022-09-26T18:08:30.126Z,14.00
2022-09-26T18:10:59.090Z,14.00
2022-09-26T18:13:31.597Z,13.90
2022-09-26T18:16:02.324Z,13.90
2022-09-26T18:18:30.988Z,13.90
2022-09-26T18:21:03.197Z,13.90
2022-09-26T18:23:38.419Z,13.90
2022-09-26T18:26:08.161Z,13.90
2022-09-26T18:28:39.025Z,13.80
2022-09-26T18:31:07.595Z,13.80
2022-09-26T18:33:38.031Z,13.70
2022-09-26T18:36:05.425Z,13.70
2022-09-26T18:38:32.391Z,13.70
2022-09-26T18:40:59.590Z,13.70
2022-09-26T18:43:32.154Z,13.70
2022-09-26T18:45:59.324Z,13.70
2022-09-26T18:48:29.490Z,13.70
2022-09-26T18:50:57.740Z,13.70
2022-09-26T18:53:30.446Z,13.70
2022-09-26T18:56:15.788Z,13.60
2022-09-26T18:58:43.963Z,13.70
2022-09-26T19:01:22.142Z,13.70
2022-09-26T19:03:49.426Z,13.70
2022-09-26T19:06:19.063Z,13.60
2022-09-26T19:08:47.374Z,13.60
2022-09-26T19:11:21.489Z,13.60
2022-09-26T19:13:51.390Z,13.60
2022-09-26T19:16:18.772Z,13.60
2022-09-26T19:18:46.259Z,13.60
2022-09-26T19:21:22.612Z,13.60
2022-09-26T19:23:50.621Z,13.60
2022-09-26T19:26:24.856Z,13.50
2022-09-26T19:28:51.914Z,13.50
2022-09-26T19:31:19.080Z,13.50
2022-09-26T19:33:48.114Z,13.50
2022-09-26T19:36:16.388Z,13.50
2022-09-26T19:38:43.453Z,13.40
2022-09-26T19:41:10.765Z,13.40
2022-09-26T19:43:38.187Z,13.40
2022-09-26T19:46:07.448Z,13.30
2022-09-26T19:48:38.856Z,13.30
2022-09-26T19:51:06.965Z,13.30
2022-09-26T19:53:34.845Z,13.20
2022-09-26T19:56:09.463Z,13.20
2022-09-26T19:58:36.654Z,13.10
2022-09-26T20:01:13.194Z,13.20
2022-09-26T20:03:41.950Z,13.20
2022-09-26T20:06:27.050Z,13.20
2022-09-26T20:09:01.599Z,13.20
2022-09-26T20:11:29.036Z,13.20
2022-09-26T20:14:14.674Z,13.10
2022-09-26T20:16:42.371Z,13.20
2022-09-26T20:19:16.879Z,13.20
2022-09-26T20:21:44.877Z,13.20
2022-09-26T20:24:14.737Z,13.10
2022-09-26T20:26:42.561Z,13.10
2022-09-26T20:29:15.811Z,13.10
2022-09-26T20:31:43.790Z,13.00
2022-09-26T20:34:11.668Z,13.00
2022-09-26T20:36:43.640Z,13.00
2022-09-26T20:39:12.659Z,12.90
2022-09-26T20:41:40.936Z,12.90
2022-09-26T20:44:12.370Z,12.80
2022-09-26T20:46:40.652Z,12.80
2022-09-26T20:49:08.831Z,12.70
2022-09-26T20:51:35.990Z,12.70
2022-09-26T20:54:03.266Z,12.60
2022-09-26T20:56:30.252Z,12.60
2022-09-26T20:58:59.704Z,12.50
2022-09-26T21:01:27.146Z,12.40
2022-09-26T21:03:55.379Z,12.40
2022-09-26T21:06:23.851Z,12.40
2022-09-26T21:08:50.879Z,12.30
2022-09-26T21:11:19.422Z,12.20
2022-09-26T21:13:46.641Z,12.30
2022-09-26T21:16:14.667Z,12.20
2022-09-26T21:18:42.910Z,12.20
2022-09-26T21:21:16.481Z,12.10
2022-09-26T21:23:53.593Z,12.10
2022-09-26T21:26:31.404Z,12.10
2022-09-26T21:29:00.317Z,12.10
2022-09-26T21:31:29.420Z,12.10
2022-09-26T21:33:57.672Z,12.00
2022-09-26T21:36:26.481Z,12.00
2022-09-26T21:38:55.464Z,11.90
2022-09-26T21:41:23.418Z,11.90
2022-09-26T21:43:56.272Z,11.90
2022-09-26T21:46:25.192Z,11.90
2022-09-26T21:48:52.309Z,11.90
2022-09-26T21:51:20.522Z,11.90
2022-09-26T21:54:17.017Z,11.90
2022-09-26T21:56:49.405Z,11.90
2022-09-26T21:59:18.117Z,11.90
2022-09-26T22:01:45.485Z,11.80
2022-09-26T22:04:12.956Z,11.80
2022-09-26T22:06:40.766Z,11.80
2022-09-26T22:12:04.928Z,11.80
2022-09-26T22:14:32.051Z,11.80
2022-09-26T22:16:59.242Z,11.80
2022-09-26T22:19:27.526Z,11.80
2022-09-26T22:21:56.340Z,11.80
2022-09-26T22:24:23.387Z,11.80
2022-09-26T22:26:51.061Z,11.70
2022-09-26T22:29:18.023Z,11.80
2022-09-26T22:31:45.191Z,11.70
2022-09-26T22:34:12.185Z,11.70
2022-09-26T22:36:39.573Z,11.70
2022-09-26T22:39:06.584Z,11.70
2022-09-26T22:41:33.598Z,11.70
2022-09-26T22:44:01.148Z,11.60
2022-09-26T22:46:28.286Z,11.60
2022-09-26T22:48:55.323Z,11.60
2022-09-26T22:51:22.273Z,11.60
2022-09-26T22:53:49.336Z,11.60
2022-09-26T22:56:16.741Z,11.60
2022-09-26T22:58:45.204Z,11.50
2022-09-26T23:01:15.987Z,11.50
2022-09-26T23:03:44.026Z,11.50
2022-09-26T23:06:11.170Z,11.50
2022-09-26T23:08:38.256Z,11.50
2022-09-26T23:11:06.163Z,11.40
2022-09-26T23:13:33.931Z,11.40
2022-09-26T23:16:08.271Z,11.40
2022-09-26T23:18:35.712Z,11.40
2022-09-26T23:21:22.406Z,11.40
2022-09-26T23:23:50.691Z,11.40
2022-09-26T23:26:21.692Z,11.40
2022-09-26T23:28:58.859Z,11.40
2022-09-26T23:31:27.553Z,11.40
2022-09-26T23:33:58.003Z,11.40
2022-09-26T23:36:25.567Z,11.40
2022-09-26T23:38:53.215Z,11.40
2022-09-26T23:41:20.529Z,11.40
2022-09-26T23:43:50.712Z,11.40
2022-09-26T23:46:18.017Z,11.40
2022-09-26T23:48:45.715Z,11.40
2022-09-26T23:51:12.899Z,11.40
2022-09-26T23:53:39.870Z,11.30
2022-09-26T23:56:11.495Z,11.30
2022-09-26T23:58:38.733Z,11.40
